Weather History for KASH - November, 2012

Change the Weather History Date:

Thursday, November 8, 2012

  Actual Average Record
Temperature  
Mean Temperature 35 °F -  
Max Temperature 38 °F 50 °F 71 °F (1975)
Min Temperature 32 °F 31 °F 14 °F (1960)
Degree Days  
Heating Degree Days 30    
Moisture  
Dew Point 32 °F    
Average Humidity 87    
Maximum Humidity 93    
Minimum Humidity 74    
Precipitation  
Precipitation 0.41 in - - ()
Sea Level Pressure  
Sea Level Pressure 29.75 in    
Wind  
Wind Speed 16 mph (North)    
Max Wind Speed 33 mph    
Max Gust Speed 45 mph    
Visibility 3 miles    
Events Rain , Snow    
Averages and records for this station are not official NWS values.
T = Trace of Precipitation, MM = Missing Value Source: NWS Daily Summary

Daily Weather History Graph

Daily Weather History Graph

Search for Another Location

Airport or City:

Trip Planner

Search our weather history database for the weather conditions in past years. The results will help you decide how hot, cold, wet, or windy it might be!

Date:

Astronomy

Nov. 08, 2012 Rise Set
Actual Time 6:29 AM EST 4:29 PM EST
Civil Twilight 5:59 AM EST 4:59 PM EST
Nautical Twilight 5:25 AM EST 5:33 PM EST
Astronomical Twilight 4:52 AM EST 6:06 PM EST
Moon 12:13 AM EST (11/8) 1:16 PM EST (11/8)
Length of Visible Light 10h 59m
Length of Day
9h 59m
Waning Crescent, 33% of the Moon is Illuminated
Nov 8
Waning Crescent
Nov 13
New
Nov 20
First Quarter
Nov 28
Full
Dec 6
Last Quarter

Hourly Weather History & Observations

Time (EST) Temp. Windchill Dew Point Humidity Pressure Visibility Wind Dir Wind Speed Gust Speed Precip Events Conditions
12:08 AM 32.0 °F 21.6 °F 26.6 °F 80% 29.82 in 3.0 mi North 15.0 mph - 0.00 in   Mostly Cloudy
12:12 AM 32.0 °F 22.5 °F 26.6 °F 80% 29.82 in 2.5 mi North 12.7 mph - 0.00 in Snow Light Snow
12:19 AM 32.0 °F 22.1 °F 28.4 °F 87% 29.82 in 1.8 mi North 13.8 mph - 0.00 in Snow Light Snow
12:27 AM 32.0 °F 17.0 °F 28.4 °F 87% 29.81 in 1.5 mi North 33.4 mph 44.9 mph 0.00 in Snow Light Snow
12:38 AM 32.0 °F 20.8 °F 28.4 °F 87% 29.80 in 2.0 mi North 17.3 mph - 0.00 in Snow Light Snow
12:51 AM 32.0 °F 20.8 °F 28.0 °F 85% 29.82 in 1.5 mi North 17.3 mph - 0.00 in Snow Light Snow
12:59 AM 32.0 °F 19.5 °F 28.4 °F 87% 29.80 in 1.2 mi North 21.9 mph 34.5 mph 0.00 in Snow Light Snow
1:07 AM 32.0 °F 22.1 °F 28.4 °F 87% 29.80 in 1.0 mi North 13.8 mph 36.8 mph 0.00 in Snow Light Snow
1:35 AM 32.0 °F 19.8 °F 28.4 °F 87% 29.80 in 1.2 mi North 20.7 mph 31.1 mph 0.00 in Snow Light Snow
1:51 AM 32.0 °F 20.5 °F 29.1 °F 89% 29.81 in 1.8 mi North 18.4 mph - 0.00 in Snow Light Snow
2:51 AM 32.0 °F 21.2 °F 29.1 °F 89% 29.80 in 1.5 mi North 16.1 mph 36.8 mph 0.00 in Snow Light Snow
3:04 AM 33.8 °F 23.5 °F 30.2 °F 87% 29.78 in 3.0 mi North 16.1 mph 36.8 mph 0.00 in Snow Light Snow
3:22 AM 33.8 °F 23.9 °F 28.4 °F 81% 29.77 in 5.0 mi North 15.0 mph 43.7 mph 0.00 in   Overcast
3:43 AM 33.8 °F 23.5 °F 28.4 °F 81% 29.77 in 2.0 mi North 16.1 mph - 0.00 in Snow Light Snow
3:51 AM 32.9 °F 22.8 °F 30.0 °F 89% 29.78 in 2.5 mi North 15.0 mph 43.7 mph 0.00 in Snow Light Snow
4:01 AM 33.8 °F 22.8 °F 30.2 °F 87% 29.77 in 3.0 mi North 18.4 mph 36.8 mph 0.00 in Snow Light Snow
4:12 AM 33.8 °F 24.8 °F 30.2 °F 87% 29.77 in 2.5 mi North 12.7 mph 25.3 mph 0.00 in   Overcast
4:21 AM 33.8 °F 23.5 °F 30.2 °F 87% 29.76 in 3.0 mi North 16.1 mph 36.8 mph 0.00 in Snow Light Snow
4:51 AM 32.9 °F 23.7 °F 30.0 °F 89% 29.77 in 4.0 mi North 12.7 mph 28.8 mph 0.00 in Snow Light Snow
5:03 AM 33.8 °F 23.9 °F 30.2 °F 87% 29.75 in 2.5 mi North 15.0 mph 35.7 mph 0.00 in   Overcast
5:38 AM 33.8 °F 21.3 °F 30.2 °F 87% 29.74 in 1.8 mi North 24.2 mph 40.3 mph 0.00 in Rain Light Rain
5:51 AM 32.9 °F 23.2 °F 30.0 °F 89% 29.76 in 1.5 mi North 13.8 mph 26.5 mph 0.00 in Rain Light Rain
6:03 AM 33.8 °F 25.3 °F 30.2 °F 87% 29.74 in 1.2 mi North 11.5 mph - 0.00 in Rain Rain
6:09 AM 33.8 °F 24.8 °F 30.2 °F 87% 29.74 in 2.0 mi North 12.7 mph - 0.00 in Rain Light Rain
6:51 AM 34.0 °F 23.8 °F 31.1 °F 89% 29.75 in 1.2 mi North 16.1 mph 32.2 mph 0.00 in Rain Rain
6:56 AM 33.8 °F 24.3 °F 30.2 °F 87% 29.74 in 0.8 mi North 13.8 mph 32.2 mph 0.00 in Rain Rain
7:08 AM 33.8 °F 23.2 °F 30.2 °F 87% 29.73 in 1.2 mi North 17.3 mph 32.2 mph 0.00 in Rain Light Rain
7:14 AM 33.8 °F 24.3 °F 30.2 °F 87% 29.73 in 2.0 mi North 13.8 mph 32.2 mph 0.00 in Rain Light Rain
7:51 AM 34.0 °F 24.2 °F 32.0 °F 92% 29.75 in 7.0 mi North 15.0 mph - 0.02 in   Overcast
8:12 AM 35.6 °F 26.6 °F 32.0 °F 87% 29.73 in 2.0 mi North 13.8 mph 39.1 mph 0.03 in   Overcast
8:25 AM 35.6 °F 26.2 °F 32.0 °F 87% 29.73 in 1.8 mi North 15.0 mph 27.6 mph 0.05 in   Overcast
8:28 AM 35.6 °F 26.6 °F 32.0 °F 87% 29.73 in 2.0 mi North 13.8 mph 27.6 mph 0.05 in   Overcast
8:42 AM 35.6 °F 26.6 °F 32.0 °F 87% 29.73 in 1.5 mi North 13.8 mph 41.4 mph 0.06 in   Overcast
8:51 AM 34.9 °F 25.3 °F 32.0 °F 89% 29.75 in 1.2 mi North 15.0 mph 26.5 mph 0.07 in   Overcast
9:00 AM 35.6 °F 27.1 °F 32.0 °F 87% 29.74 in 2.0 mi North 12.7 mph 32.2 mph 0.00 in   Overcast
9:11 AM 35.6 °F 27.1 °F 32.0 °F 87% 29.74 in 1.8 mi North 12.7 mph 29.9 mph 0.00 in Rain Light Rain
9:17 AM 35.6 °F 26.2 °F 32.0 °F 87% 29.73 in 1.5 mi North 15.0 mph 29.9 mph 0.01 in Rain Rain
9:24 AM 35.6 °F 27.5 °F 32.0 °F 87% 29.74 in 1.0 mi North 11.5 mph - 0.02 in Rain Heavy Rain
9:28 AM 35.6 °F 26.2 °F 32.0 °F 87% 29.73 in 0.8 mi North 15.0 mph - 0.03 in Rain Heavy Rain
9:37 AM 33.8 °F 24.3 °F 32.0 °F 93% 29.73 in 0.8 mi North 13.8 mph - 0.05 in Rain Heavy Rain
9:44 AM 35.6 °F 25.9 °F 32.0 °F 87% 29.73 in 1.2 mi North 16.1 mph - 0.06 in Rain Heavy Rain
9:51 AM 34.9 °F 26.2 °F 32.0 °F 89% 29.74 in 2.0 mi North 12.7 mph 38.0 mph 0.08 in Rain Rain
10:03 AM 35.6 °F 26.6 °F 33.8 °F 93% 29.72 in 4.0 mi North 13.8 mph 32.2 mph 0.01 in Rain Light Rain
10:24 AM 35.6 °F 27.5 °F 33.8 °F 93% 29.72 in 2.5 mi North 11.5 mph - 0.04 in Rain Rain
10:28 AM 35.6 °F 26.6 °F 33.8 °F 93% 29.72 in 3.0 mi NNW 13.8 mph - 0.05 in Rain Rain
10:38 AM 35.6 °F 26.2 °F 33.8 °F 93% 29.72 in 2.5 mi North 15.0 mph 26.5 mph 0.08 in Rain Rain
10:51 AM 36.0 °F 27.5 °F 32.9 °F 89% 29.73 in 2.0 mi North 12.7 mph 27.6 mph 0.11 in Rain Rain
10:53 AM 35.6 °F 27.1 °F 33.8 °F 93% 29.72 in 1.8 mi North 12.7 mph 27.6 mph 0.01 in Rain Heavy Rain
10:59 AM 35.6 °F 27.5 °F 33.8 °F 93% 29.71 in 1.2 mi North 11.5 mph - 0.03 in Rain Heavy Rain
11:14 AM 35.6 °F 25.5 °F 33.8 °F 93% 29.70 in 1.8 mi NNW 17.3 mph - 0.05 in Rain Light Rain
11:22 AM 35.6 °F 26.6 °F 33.8 °F 93% 29.70 in 2.5 mi NNW 13.8 mph 28.8 mph 0.05 in Rain Light Rain
11:31 AM 35.6 °F 27.1 °F 33.8 °F 93% 29.70 in 3.0 mi NNW 12.7 mph 24.2 mph 0.06 in Rain Light Rain
11:38 AM 35.6 °F 27.5 °F 33.8 °F 93% 29.70 in 3.0 mi North 11.5 mph - 0.06 in Rain Light Rain
11:41 AM 35.6 °F 26.2 °F 33.8 °F 93% 29.70 in 2.5 mi North 15.0 mph - 0.06 in Rain Light Rain
11:51 AM 36.0 °F 25.6 °F 32.9 °F 89% 29.70 in 1.2 mi North 18.4 mph - 0.06 in Rain Light Rain
12:03 PM 35.6 °F 25.9 °F 33.8 °F 93% 29.69 in 1.8 mi NNW 16.1 mph - 0.01 in Rain Light Rain
12:12 PM 37.4 °F 29.8 °F 33.8 °F 87% 29.69 in 2.0 mi North 11.5 mph - 0.01 in Rain Light Rain
12:22 PM 37.4 °F 29.8 °F 33.8 °F 87% 29.70 in 3.0 mi North 11.5 mph - 0.01 in   Overcast
12:29 PM 37.4 °F 28.2 °F 33.8 °F 87% 29.69 in 2.0 mi North 16.1 mph - 0.01 in   Overcast
12:37 PM 37.4 °F 28.9 °F 33.8 °F 87% 29.69 in 1.5 mi North 13.8 mph - 0.01 in Rain Light Rain
12:42 PM 37.4 °F 28.5 °F 33.8 °F 87% 29.69 in 1.2 mi North 15.0 mph - 0.01 in Rain Rain
12:51 PM 36.9 °F 28.7 °F 34.0 °F 89% 29.70 in 1.2 mi North 12.7 mph - 0.01 in Rain Light Rain
1:06 PM 37.4 °F 28.2 °F 33.8 °F 87% 29.69 in 1.0 mi North 16.1 mph - 0.02 in Rain Rain
1:18 PM 37.4 °F 27.8 °F 35.6 °F 93% 29.69 in 1.5 mi North 17.3 mph - 0.03 in Rain Rain
1:31 PM 37.4 °F 28.9 °F 35.6 °F 93% 29.69 in 2.0 mi North 13.8 mph - 0.03 in Rain Light Rain
1:51 PM 36.9 °F 29.1 °F 34.9 °F 93% 29.71 in 5.0 mi NNW 11.5 mph - 0.04 in   Overcast
2:51 PM 36.9 °F 29.1 °F 34.0 °F 89% 29.72 in 5.0 mi North 11.5 mph - 0.00 in Rain Light Rain
3:51 PM 36.9 °F 27.5 °F 32.9 °F 86% 29.73 in 3.0 mi North 16.1 mph - 0.01 in Rain Light Rain
4:51 PM 36.9 °F 27.8 °F 32.9 °F 86% 29.75 in 10.0 mi NNW 15.0 mph - 0.00 in Rain Light Rain
5:51 PM 36.9 °F 27.8 °F 32.9 °F 86% 29.77 in 10.0 mi NNW 15.0 mph - 0.01 in   Overcast
6:24 PM 37.4 °F 28.5 °F 33.8 °F 87% 29.76 in 7.0 mi NNW 15.0 mph - 0.00 in Rain Light Rain
6:51 PM 36.9 °F 28.2 °F 32.0 °F 83% 29.78 in 10.0 mi NNW 13.8 mph - 0.00 in Rain Light Rain
7:51 PM 37.9 °F 29.2 °F 32.0 °F 79% 29.78 in 10.0 mi NNW 15.0 mph - 0.00 in   Overcast
8:51 PM 37.9 °F 30.9 °F 31.1 °F 76% 29.78 in 10.0 mi NNW 10.4 mph - N/A   Overcast
9:51 PM 37.9 °F 29.2 °F 31.1 °F 76% 29.79 in 10.0 mi NNW 15.0 mph - N/A   Overcast
10:51 PM 38.8 °F 32.1 °F 31.1 °F 74% 29.79 in 10.0 mi NNW 10.4 mph - N/A   Overcast
11:51 PM 38.8 °F 29.7 °F 31.1 °F 74% 29.80 in 10.0 mi NNW 17.3 mph - N/A   Overcast